Winnetoon, NE (68789)

4:11 PM CDT on September 25, 2016 (GMT -0500)
Ewing | | Change Station

Elev 1929 ft 42.24 °N, 98.24 °W | Updated 47 seconds ago

Clear
Clear
68.1 °F
Feels Like 68.1 °F
N
15.0
Wind Variable Wind from NW
Gusts 25.0 mph

Today
High -- | Low -- °F
--% Chance of Precip.
Yesterday
High -- | Low -- °F
Precip. -- in
Pressure 30.19 in
Visibility 10.0 miles
Clouds Clear
Dew Point 37 °F
Humidity 32%
Rainfall 0.00 in
Snow Depth Not available.
7:23 AM 7:23 PM
Waning Crescent, 25% visible
METAR KONL 252055Z AUTO 31021G27KT 10SM CLR 20/M03 A3019 RMK AO2 T02021026
Pressure 30.19 in
Visibility 10.0 miles
Clouds Clear
Dew Point 37 °F
Humidity 32%
Rainfall 0.00 in
Snow Depth Not available.
7:23 AM 7:23 PM
Waning Crescent, 25% visible
METAR KONL 252055Z AUTO 31021G27KT 10SM CLR 20/M03 A3019 RMK AO2 T02021026

10-Day Weather Forecast

Almanac

Astronomy

Sep. 25, 2016 Rise Set
Actual Time
Civil Twilight
Nautical Twilight
Astronomical Twilight
Moon
Length of Visible Light
Length of Day
Tomorrow will be .
, % of the Moon is Illuminated

Today's Extremes

State Highs State Lows

Community

WunderPhotos

Upload Photos

1,941,732 photos uploaded!

WunderBlog® & News

Nearby

Air Quality

  Air Quality AQ Index Pollutant
Not available.

Snow Depth

Station Depth Elevation

Earthquake Activity

City Distance Mag. Time & Date
Minimum magnitude displayed is 2.5.

Coastal Water Temperatures

Place Temperature

Stations

Nearby Weather Stations

Station Location Temp. Windchill Dew Point Humidity Wind Precip. Elev Updated Type
                   

Watches & Warnings

There are currently no watches in effect.